Time;durP1;ratioP1;P1;durP2;ratioP2;P2;SDS_P1;SDS_P2;PMS_P1;PMS_P2;Temp;Humidity;BMP_temperature;BMP_pressure;BME280_temperature;BME280_humidity;BME280_pressure;Samples;Min_cycle;Max_cycle;Signal;HPM_P1;HPM_P2
2023/03/06 00:00:59;;;;;;;8.95;1.83;;;4.70;99.90;;;;;;4968091;28;95621;-79
2023/03/06 00:03:26;;;;;;;4.38;1.63;;;4.70;99.90;;;;;;5000269;28;92480;-79
2023/03/06 00:05:56;;;;;;;1.52;1.42;;;4.60;99.90;;;;;;4983303;28;92480;-79
2023/03/06 00:08:24;;;;;;;4.57;1.48;;;4.60;99.90;;;;;;4998753;28;98501;-79
2023/03/06 00:10:52;;;;;;;6.15;2.20;;;4.60;99.90;;;;;;5000094;28;98257;-79
2023/03/06 00:13:19;;;;;;;4.97;1.67;;;4.60;99.90;;;;;;4999944;28;92542;-79
2023/03/06 00:15:47;;;;;;;5.28;1.40;;;4.70;99.90;;;;;;5000121;28;92483;-79
2023/03/06 00:18:14;;;;;;;3.35;1.73;;;4.70;99.90;;;;;;5018127;28;93431;-79
2023/03/06 00:20:42;;;;;;;5.38;1.70;;;4.70;99.90;;;;;;5000166;28;92944;-79
2023/03/06 00:23:12;;;;;;;2.60;1.40;;;4.70;99.90;;;;;;5000017;28;92492;-79
2023/03/06 00:25:44;;;;;;;6.40;1.40;;;4.70;99.90;;;;;;5017003;28;91688;-79
2023/03/06 00:28:13;;;;;;;6.00;2.30;;;4.70;99.90;;;;;;4999940;28;95791;-79
2023/03/06 00:30:40;;;;;;;4.22;1.60;;;4.70;99.90;;;;;;4999735;28;95510;-79
2023/03/06 00:33:07;;;;;;;4.38;1.52;;;4.70;99.90;;;;;;4982014;28;96275;-79
2023/03/06 00:35:36;;;;;;;4.07;1.45;;;4.70;99.90;;;;;;5000081;28;92491;-79
2023/03/06 00:38:03;;;;;;;4.55;1.70;;;4.70;99.90;;;;;;4999346;28;95776;-80
2023/03/06 00:40:31;;;;;;;3.53;1.60;;;4.70;99.90;;;;;;4982936;28;95516;-80
2023/03/06 00:42:59;;;;;;;4.50;1.60;;;4.70;99.90;;;;;;4998985;28;92539;-79
2023/03/06 00:45:26;;;;;;;5.13;1.63;;;4.70;99.90;;;;;;4983309;28;92519;-80
2023/03/06 00:47:53;;;;;;;5.85;1.85;;;4.70;99.90;;;;;;4983031;28;96155;-79
2023/03/06 00:50:19;;;;;;;4.57;2.03;;;4.80;99.90;;;;;;5000071;28;91730;-80
2023/03/06 00:52:46;;;;;;;3.60;1.48;;;4.80;99.90;;;;;;4999540;28;92488;-79
2023/03/06 00:55:14;;;;;;;4.25;1.75;;;4.80;99.90;;;;;;4999448;28;92519;-79
2023/03/06 00:57:40;;;;;;;4.82;1.65;;;4.80;99.90;;;;;;4981368;28;98367;-79
2023/03/06 01:00:10;;;;;;;2.83;1.35;;;4.80;99.90;;;;;;4982622;28;97851;-79
2023/03/06 01:02:38;;;;;;;3.85;1.70;;;4.80;99.90;;;;;;4999333;28;92440;-79
2023/03/06 01:05:05;;;;;;;4.18;1.52;;;4.80;99.90;;;;;;4999466;28;92593;-79
2023/03/06 01:07:35;;;;;;;2.15;1.60;;;4.80;99.90;;;;;;4998642;28;95702;-79
2023/03/06 01:10:04;;;;;;;1.77;1.50;;;4.80;99.90;;;;;;4983269;28;95540;-79
2023/03/06 01:12:31;;;;;;;4.03;1.60;;;4.80;99.90;;;;;;4982755;28;92523;-79
2023/03/06 01:14:58;;;;;;;5.90;1.98;;;4.80;99.90;;;;;;4983335;28;91720;-79
2023/03/06 01:17:25;;;;;;;3.40;1.70;;;4.80;99.90;;;;;;4982308;28;95847;-79
2023/03/06 01:19:51;;;;;;;4.68;1.55;;;4.90;99.90;;;;;;4966706;28;92921;-79
2023/03/06 01:22:18;;;;;;;4.75;1.70;;;4.90;99.90;;;;;;5016464;28;95666;-79
2023/03/06 01:24:45;;;;;;;4.30;1.77;;;4.90;99.90;;;;;;4999177;28;92528;-79
2023/03/06 01:27:13;;;;;;;3.33;1.75;;;4.90;99.90;;;;;;4999282;28;93186;-79
2023/03/06 01:29:42;;;;;;;3.22;1.83;;;4.90;99.90;;;;;;5015375;28;92894;-79
2023/03/06 01:32:09;;;;;;;2.75;1.70;;;5.00;99.90;;;;;;4950038;28;92563;-79
2023/03/06 01:34:36;;;;;;;5.00;1.75;;;5.00;99.90;;;;;;5017005;28;92464;-79
2023/03/06 01:37:03;;;;;;;5.60;1.80;;;5.00;99.90;;;;;;4981948;28;99452;-80
2023/03/06 01:39:30;;;;;;;3.10;1.77;;;5.00;99.90;;;;;;4982329;28;95736;-79
2023/03/06 01:41:57;;;;;;;4.07;1.70;;;5.00;99.90;;;;;;4998694;28;92445;-79
2023/03/06 01:44:24;;;;;;;3.30;1.90;;;5.00;99.90;;;;;;5016777;28;92465;-79
2023/03/06 01:46:51;;;;;;;4.07;1.65;;;5.00;99.90;;;;;;4997571;28;95642;-79
2023/03/06 01:49:21;;;;;;;3.80;1.90;;;5.00;99.90;;;;;;4981926;28;98497;-79
2023/03/06 01:51:53;;;;;;;5.53;1.98;;;5.00;99.90;;;;;;4998407;28;92575;-79
2023/03/06 01:54:37;;;;;;;3.75;1.65;;;5.10;99.90;;;;;;4998425;28;92447;-79
2023/03/06 01:57:35;;;;;;;3.70;2.03;;;5.10;99.90;;;;;;5015545;28;92605;-79
2023/03/06 02:00:12;;;;;;;2.03;1.55;;;5.10;99.90;;;;;;4975277;28;95720;-79
2023/03/06 02:02:44;;;;;;;4.32;1.90;;;5.00;99.90;;;;;;5014385;28;92806;-79
2023/03/06 02:05:11;;;;;;;2.78;1.92;;;5.00;99.90;;;;;;4998852;28;91696;-79
2023/03/06 02:07:40;;;;;;;5.00;1.60;;;5.00;99.90;;;;;;4980603;28;107143;-79
2023/03/06 02:10:08;;;;;;;5.90;2.42;;;5.10;99.90;;;;;;4965878;28;95862;-79
2023/03/06 02:12:38;;;;;;;4.53;1.63;;;5.10;99.90;;;;;;4997284;28;95364;-79
2023/03/06 02:15:05;;;;;;;4.60;1.60;;;5.10;99.90;;;;;;4998376;28;93066;-79
2023/03/06 02:17:34;;;;;;;2.83;1.85;;;5.10;99.90;;;;;;4997762;28;95694;-79
2023/03/06 02:20:33;;;;;;;3.55;1.77;;;5.10;99.90;;;;;;4981894;28;95624;-79
2023/03/06 02:23:03;;;;;;;2.58;1.50;;;5.10;99.90;;;;;;4975743;28;92564;-79
2023/03/06 02:25:38;;;;;;;3.70;1.50;;;5.00;99.90;;;;;;5016466;28;92452;-79
2023/03/06 02:28:08;;;;;;;6.63;1.80;;;4.90;99.90;;;;;;4998171;28;95568;-79
2023/03/06 02:30:36;;;;;;;4.40;1.70;;;4.80;99.90;;;;;;4998014;28;95525;-79
2023/03/06 02:33:04;;;;;;;3.35;1.77;;;4.70;99.90;;;;;;4998352;28;92956;-80
2023/03/06 02:35:36;;;;;;;5.07;1.58;;;4.50;99.90;;;;;;4998680;28;93031;-80
2023/03/06 02:38:07;;;;;;;4.15;1.70;;;4.40;99.90;;;;;;4996568;28;98108;-79
2023/03/06 02:40:34;;;;;;;5.05;1.75;;;4.30;99.90;;;;;;5014950;28;95807;-79
2023/03/06 02:43:01;;;;;;;2.47;1.38;;;4.20;99.90;;;;;;5016133;28;92441;-80
2023/03/06 02:45:36;;;;;;;1.77;1.50;;;4.10;99.90;;;;;;4998282;28;92395;-80
2023/03/06 02:48:03;;;;;;;2.97;1.70;;;4.00;99.90;;;;;;4997914;28;94520;-79
2023/03/06 02:50:32;;;;;;;2.72;1.63;;;3.90;99.90;;;;;;4997801;28;94723;-80
2023/03/06 02:53:00;;;;;;;2.28;1.67;;;3.90;99.90;;;;;;4981401;28;92503;-80
2023/03/06 02:55:29;;;;;;;2.33;1.70;;;3.80;99.90;;;;;;4997991;28;91813;-80
2023/03/06 02:57:56;;;;;;;1.98;1.67;;;3.80;99.90;;;;;;4997299;28;95637;-80
2023/03/06 03:00:24;;;;;;;1.60;1.50;;;3.80;99.90;;;;;;4997604;28;95565;-80
2023/03/06 03:02:51;;;;;;;1.90;1.55;;;3.80;99.90;;;;;;4996180;28;94950;-80
2023/03/06 03:05:18;;;;;;;1.55;1.45;;;3.90;99.90;;;;;;4980271;28;92563;-80
2023/03/06 03:07:51;;;;;;;2.03;1.73;;;3.80;99.90;;;;;;4966032;28;95415;-80
2023/03/06 03:10:19;;;;;;;1.45;1.35;;;3.80;99.90;;;;;;4980548;28;95352;-80
2023/03/06 03:12:47;;;;;;;2.35;1.55;;;3.80;99.90;;;;;;4997205;28;92772;-80
2023/03/06 03:15:15;;;;;;;1.52;1.42;;;3.70;99.90;;;;;;4997230;28;92508;-80
2023/03/06 03:17:42;;;;;;;1.73;1.63;;;3.70;99.90;;;;;;4980588;28;95658;-80
2023/03/06 03:20:13;;;;;;;2.63;1.65;;;3.60;99.90;;;;;;4997472;28;95775;-80
2023/03/06 03:22:40;;;;;;;1.67;1.45;;;3.60;99.90;;;;;;4997471;28;92537;-80
2023/03/06 03:25:07;;;;;;;1.70;1.30;;;3.60;99.90;;;;;;4997196;28;92522;-80
2023/03/06 03:27:35;;;;;;;1.50;1.40;;;3.60;99.90;;;;;;4995839;28;98185;-80
2023/03/06 03:30:03;;;;;;;1.40;1.30;;;3.60;99.90;;;;;;4964556;28;97894;-80
2023/03/06 03:32:30;;;;;;;1.42;1.33;;;3.60;99.90;;;;;;4981158;28;92543;-80
2023/03/06 03:36:11;;;;;;;1.40;1.30;;;3.50;99.90;;;;;;4997139;28;92503;-80
2023/03/06 03:38:59;;;;;;;1.27;1.17;;;3.50;99.90;;;;;;4972202;28;92900;-80
2023/03/06 03:41:26;;;;;;;1.50;1.13;;;3.30;99.90;;;;;;4956304;28;95622;-80
2023/03/06 03:43:53;;;;;;;1.42;1.33;;;3.30;99.90;;;;;;4956184;28;92734;-80
2023/03/06 03:46:21;;;;;;;1.48;1.13;;;3.30;99.90;;;;;;4956933;28;91699;-80
2023/03/06 03:48:51;;;;;;;1.25;1.08;;;3.30;99.90;;;;;;4956001;28;95229;-79
2023/03/06 03:51:18;;;;;;;1.40;1.30;;;3.20;99.90;;;;;;4956229;28;95643;-79
2023/03/06 03:53:49;;;;;;;1.27;1.17;;;3.20;99.90;;;;;;4954540;28;95048;-79
2023/03/06 03:56:19;;;;;;;1.30;1.20;;;3.10;99.90;;;;;;4956112;28;92577;-79
2023/03/06 03:58:59;;;;;;;1.85;1.30;;;3.10;99.90;;;;;;4941433;28;95848;-79
2023/03/06 04:01:31;;;;;;;1.45;1.35;;;3.20;99.90;;;;;;4940497;28;95377;-79
2023/03/06 04:03:58;;;;;;;3.05;2.17;;;3.20;99.90;;;;;;4956794;28;93173;-79
2023/03/06 04:06:25;;;;;;;1.10;1.10;;;3.20;99.90;;;;;;4939016;28;92507;-79
2023/03/06 04:08:52;;;;;;;1.20;1.10;;;3.30;99.90;;;;;;4955740;28;95908;-79
2023/03/06 04:11:20;;;;;;;1.58;1.10;;;3.30;99.90;;;;;;4997156;28;95341;-79
2023/03/06 04:13:47;;;;;;;1.70;1.60;;;3.30;99.90;;;;;;4996596;28;92393;-79
2023/03/06 04:16:16;;;;;;;1.55;1.45;;;3.30;99.90;;;;;;4998324;28;92573;-79
2023/03/06 04:18:43;;;;;;;2.83;1.33;;;3.30;99.90;;;;;;4998510;28;97937;-79
2023/03/06 04:21:10;;;;;;;1.45;1.35;;;3.30;99.90;;;;;;4999334;28;97559;-79
2023/03/06 04:23:37;;;;;;;1.40;1.20;;;3.20;99.90;;;;;;4983546;28;92419;-79
2023/03/06 04:26:05;;;;;;;3.20;1.70;;;3.30;99.90;;;;;;5000148;28;93223;-79
2023/03/06 04:28:32;;;;;;;1.65;1.55;;;3.20;99.90;;;;;;4999718;28;95513;-80
2023/03/06 04:30:59;;;;;;;2.70;1.52;;;3.20;99.90;;;;;;5000043;28;94641;-79
2023/03/06 04:33:27;;;;;;;1.90;1.70;;;3.20;99.90;;;;;;4967159;28;93056;-79
2023/03/06 04:35:54;;;;;;;2.00;1.50;;;3.20;99.90;;;;;;5000382;28;91797;-80
2023/03/06 04:38:25;;;;;;;1.83;1.50;;;3.20;99.90;;;;;;4999427;28;95553;-79
2023/03/06 04:40:52;;;;;;;2.00;1.42;;;3.20;99.90;;;;;;4999444;28;95664;-79
2023/03/06 04:43:19;;;;;;;2.53;1.55;;;3.20;99.90;;;;;;4982520;28;94924;-79
2023/03/06 04:45:46;;;;;;;1.95;1.40;;;3.10;99.90;;;;;;4982948;28;92893;-79
2023/03/06 04:48:17;;;;;;;3.20;1.83;;;3.10;99.90;;;;;;4999221;28;96076;-79
2023/03/06 04:50:44;;;;;;;1.85;1.52;;;3.10;99.90;;;;;;5017262;28;94024;-79
2023/03/06 04:53:13;;;;;;;1.60;1.50;;;3.10;99.90;;;;;;4999594;28;92482;-79
2023/03/06 04:55:40;;;;;;;2.00;1.38;;;3.10;99.90;;;;;;4999286;28;92546;-79
2023/03/06 04:58:07;;;;;;;1.52;1.30;;;3.10;99.90;;;;;;4966965;28;93428;-79
2023/03/06 05:00:34;;;;;;;2.35;1.20;;;3.10;99.90;;;;;;4966784;28;101186;-80
2023/03/06 05:03:01;;;;;;;2.25;1.58;;;3.20;99.90;;;;;;4982810;28;92556;-79
2023/03/06 05:05:29;;;;;;;1.45;1.25;;;3.20;99.90;;;;;;4999438;28;92548;-79
2023/03/06 05:07:56;;;;;;;3.50;1.33;;;3.20;99.90;;;;;;4997395;28;98290;-79
2023/03/06 05:10:23;;;;;;;2.35;1.20;;;3.20;99.90;;;;;;5017189;28;95581;-79
2023/03/06 05:12:50;;;;;;;1.30;1.08;;;3.30;99.90;;;;;;5017245;28;92491;-79
2023/03/06 05:15:17;;;;;;;2.47;1.77;;;3.30;99.90;;;;;;4998801;28;95363;-79
2023/03/06 05:17:45;;;;;;;1.85;1.30;;;3.30;99.90;;;;;;4999148;28;93412;-79
2023/03/06 05:20:12;;;;;;;2.03;1.25;;;3.40;99.90;;;;;;4966417;28;95611;-79
2023/03/06 05:22:39;;;;;;;1.35;1.25;;;3.40;99.90;;;;;;4982900;28;92540;-79
2023/03/06 05:25:08;;;;;;;1.83;1.10;;;3.40;99.90;;;;;;4982911;28;91823;-79
2023/03/06 05:27:35;;;;;;;1.60;1.30;;;3.40;99.90;;;;;;4981895;28;97054;-80
2023/03/06 05:30:03;;;;;;;1.92;1.30;;;3.40;99.90;;;;;;4999005;28;92883;-79
2023/03/06 05:32:30;;;;;;;1.55;1.45;;;3.40;99.90;;;;;;4997933;28;94986;-79
2023/03/06 05:34:58;;;;;;;2.05;1.48;;;3.40;99.90;;;;;;4982327;28;92554;-80
2023/03/06 05:37:25;;;;;;;2.03;1.67;;;3.40;99.90;;;;;;4982315;28;94743;-80
2023/03/06 05:39:52;;;;;;;2.28;1.55;;;3.30;99.90;;;;;;4982007;28;96209;-79
2023/03/06 05:42:19;;;;;;;2.35;1.23;;;3.30;99.90;;;;;;4982254;28;92537;-79
2023/03/06 05:44:46;;;;;;;2.30;1.58;;;3.30;99.90;;;;;;4998543;28;92610;-79
2023/03/06 05:47:13;;;;;;;1.83;1.50;;;3.30;99.90;;;;;;4999038;28;92984;-79
2023/03/06 05:49:40;;;;;;;3.72;1.75;;;3.30;99.90;;;;;;4998922;28;95872;-79
2023/03/06 05:52:10;;;;;;;2.45;2.25;;;3.30;99.90;;;;;;5016604;28;92441;-79
2023/03/06 05:54:37;;;;;;;2.38;1.85;;;3.30;99.90;;;;;;4982123;28;93260;-79
2023/03/06 05:57:04;;;;;;;2.10;1.60;;;3.30;99.90;;;;;;4980776;28;95793;-79
2023/03/06 05:59:32;;;;;;;3.50;1.75;;;3.30;99.90;;;;;;4997927;28;102198;-79
2023/03/06 06:02:00;;;;;;;2.40;1.80;;;3.40;99.90;;;;;;5016430;28;92605;-79
2023/03/06 06:04:27;;;;;;;2.97;2.20;;;3.40;99.90;;;;;;4998856;28;92579;-80
2023/03/06 06:06:56;;;;;;;3.80;2.35;;;3.40;99.90;;;;;;4994141;28;93347;-79
2023/03/06 06:09:24;;;;;;;4.05;1.90;;;3.40;99.90;;;;;;4994891;28;96174;-79
2023/03/06 06:11:57;;;;;;;2.70;2.40;;;3.50;99.90;;;;;;4994919;28;92548;-79
2023/03/06 06:14:24;;;;;;;3.35;2.05;;;3.50;99.90;;;;;;4996752;28;91814;-79
2023/03/06 06:16:51;;;;;;;2.50;1.98;;;3.50;99.90;;;;;;4996054;28;93573;-79
2023/03/06 06:19:19;;;;;;;2.35;1.83;;;3.50;99.90;;;;;;4996220;28;93039;-80
2023/03/06 06:21:51;;;;;;;2.85;2.35;;;3.50;99.90;;;;;;4993809;28;94909;-80
2023/03/06 06:24:21;;;;;;;4.53;3.72;;;3.60;99.90;;;;;;4995168;28;92511;-80
2023/03/06 06:26:55;;;;;;;4.85;3.75;;;3.60;99.90;;;;;;4995799;28;99439;-79
2023/03/06 06:29:23;;;;;;;2.40;2.20;;;3.60;99.90;;;;;;4995137;28;93434;-80
2023/03/06 06:31:51;;;;;;;2.15;1.88;;;3.60;99.90;;;;;;4995975;28;92505;-79
2023/03/06 06:34:19;;;;;;;2.67;2.03;;;3.60;99.90;;;;;;4978031;28;92526;-80
2023/03/06 06:36:46;;;;;;;2.30;2.05;;;3.60;99.90;;;;;;4994780;28;93170;-80
2023/03/06 06:39:15;;;;;;;2.95;2.10;;;3.60;99.90;;;;;;4976914;28;98921;-80
2023/03/06 06:41:43;;;;;;;3.47;1.80;;;3.60;99.90;;;;;;4994668;28;92537;-79
2023/03/06 06:44:28;;;;;;;2.35;2.03;;;3.60;99.90;;;;;;4994664;28;92629;-79
2023/03/06 06:46:55;;;;;;;2.63;1.63;;;3.60;99.90;;;;;;4994273;28;95729;-79
2023/03/06 06:49:41;;;;;;;2.05;1.83;;;3.50;99.90;;;;;;4981131;28;95610;-79
2023/03/06 06:52:09;;;;;;;4.10;2.10;;;3.50;99.90;;;;;;4977911;28;92412;-79
2023/03/06 06:54:36;;;;;;;3.40;2.03;;;3.50;99.90;;;;;;4994189;28;99288;-79
2023/03/06 06:57:03;;;;;;;3.80;2.40;;;3.50;99.90;;;;;;4995413;28;93349;-79
2023/03/06 06:59:30;;;;;;;2.88;2.33;;;3.50;99.90;;;;;;4961266;28;95995;-79
2023/03/06 07:02:00;;;;;;;3.00;2.00;;;3.60;99.90;;;;;;4993848;28;92468;-79
2023/03/06 07:04:26;;;;;;;2.15;1.90;;;3.60;99.90;;;;;;4994839;28;91857;-79
2023/03/06 07:06:57;;;;;;;2.55;1.80;;;3.70;99.90;;;;;;5004375;28;93273;-80
2023/03/06 07:09:24;;;;;;;4.40;3.70;;;3.80;99.90;;;;;;4997693;28;93052;-79
2023/03/06 07:11:51;;;;;;;5.78;4.05;;;3.90;99.90;;;;;;5014318;28;94834;-80
2023/03/06 07:14:18;;;;;;;4.07;3.22;;;4.00;99.90;;;;;;4980680;28;92553;-80
2023/03/06 07:16:45;;;;;;;4.93;4.07;;;4.10;99.90;;;;;;4997640;28;93376;-80
2023/03/06 07:19:12;;;;;;;4.32;3.50;;;4.20;99.90;;;;;;4964266;28;95393;-80
2023/03/06 07:21:40;;;;;;;4.15;2.80;;;4.30;99.90;;;;;;5015569;28;92375;-80
2023/03/06 07:24:07;;;;;;;3.67;3.35;;;4.40;99.90;;;;;;4997227;28;92544;-80
2023/03/06 07:26:34;;;;;;;3.30;3.00;;;4.50;99.90;;;;;;4980268;28;96461;-79
2023/03/06 07:29:03;;;;;;;3.97;3.17;;;4.60;99.90;;;;;;4997728;28;91999;-79
2023/03/06 07:31:30;;;;;;;3.08;2.70;;;4.70;99.90;;;;;;4997430;28;94328;-79
2023/03/06 07:33:57;;;;;;;3.03;2.72;;;4.80;99.90;;;;;;4997349;28;92586;-80
2023/03/06 07:36:24;;;;;;;4.32;2.13;;;4.90;99.90;;;;;;4979399;28;98321;-80
2023/03/06 07:38:51;;;;;;;2.03;1.77;;;5.00;99.90;;;;;;4964159;28;98151;-80
2023/03/06 07:41:17;;;;;;;3.58;2.30;;;5.10;99.90;;;;;;4996947;28;92501;-79
2023/03/06 07:43:49;;;;;;;2.60;2.17;;;5.10;99.90;;;;;;4982286;28;92484;-79
2023/03/06 07:46:16;;;;;;;3.63;1.70;;;5.10;99.90;;;;;;4996343;28;101968;-79
2023/03/06 07:48:43;;;;;;;2.92;1.88;;;5.10;99.90;;;;;;4996970;28;95839;-79
2023/03/06 07:51:16;;;;;;;2.33;1.83;;;5.00;99.90;;;;;;4982062;28;92575;-79
2023/03/06 07:53:43;;;;;;;1.95;1.70;;;5.00;99.90;;;;;;5000970;28;91837;-79
2023/03/06 07:56:11;;;;;;;3.30;1.60;;;5.00;99.90;;;;;;5018122;28;93719;-79
2023/03/06 07:58:41;;;;;;;2.30;2.13;;;5.10;99.90;;;;;;5000471;28;93005;-79
2023/03/06 08:01:13;;;;;;;6.78;3.50;;;5.20;99.90;;;;;;5017119;28;94870;-79
2023/03/06 08:03:40;;;;;;;2.85;2.65;;;5.20;99.90;;;;;;5018630;28;92448;-79
2023/03/06 08:06:16;;;;;;;5.32;3.83;;;5.30;99.90;;;;;;4999818;28;93673;-79
2023/03/06 08:08:45;;;;;;;2.80;2.60;;;5.50;99.90;;;;;;5000114;28;95847;-79
2023/03/06 08:11:15;;;;;;;4.35;4.05;;;5.80;99.90;;;;;;5000352;28;92517;-79
2023/03/06 08:13:42;;;;;;;2.55;2.35;;;6.00;99.90;;;;;;5000128;28;92554;-79
2023/03/06 08:16:10;;;;;;;2.20;2.00;;;6.30;99.90;;;;;;4983809;28;93185;-79
2023/03/06 08:18:38;;;;;;;2.67;2.47;;;6.50;99.90;;;;;;4999916;28;95645;-79
2023/03/06 08:21:06;;;;;;;3.80;3.47;;;6.50;99.90;;;;;;4983668;28;92401;-79
2023/03/06 08:23:34;;;;;;;5.22;4.72;;;6.50;99.90;;;;;;5000048;28;95561;-79
2023/03/06 08:26:04;;;;;;;3.42;3.10;;;6.60;99.90;;;;;;5016608;28;95787;-80
2023/03/06 08:28:32;;;;;;;2.60;2.40;;;6.80;99.90;;;;;;4999727;28;97937;-80
2023/03/06 08:31:07;;;;;;;2.00;1.90;;;7.00;99.90;;;;;;5018095;28;92446;-79
2023/03/06 08:33:34;;;;;;;2.38;1.40;;;7.20;99.90;;;;;;5018212;28;92364;-79
2023/03/06 08:36:01;;;;;;;3.50;2.13;;;7.50;99.90;;;;;;4967299;28;95068;-79
2023/03/06 08:38:28;;;;;;;2.50;2.30;;;7.70;99.90;;;;;;5017879;28;92892;-79
2023/03/06 08:40:55;;;;;;;3.47;2.38;;;7.80;99.90;;;;;;4999985;28;92520;-79
2023/03/06 08:43:22;;;;;;;2.45;1.60;;;7.90;99.90;;;;;;4999866;28;91727;-80
2023/03/06 08:45:53;;;;;;;5.57;2.28;;;7.80;99.90;;;;;;4999735;28;93355;-77
2023/03/06 08:48:20;;;;;;;2.70;1.80;;;7.80;99.90;;;;;;4996638;28;94305;-81
2023/03/06 08:50:47;;;;;;;2.10;1.90;;;7.70;99.90;;;;;;5017791;28;97767;-82
2023/03/06 08:53:14;;;;;;;2.15;1.88;;;7.60;99.90;;;;;;4969729;28;92637;-80
2023/03/06 08:55:42;;;;;;;2.10;1.90;;;7.60;99.90;;;;;;5009458;28;95916;-83
2023/03/06 08:58:09;;;;;;;2.47;1.88;;;7.60;99.90;;;;;;5003057;28;95253;-73
2023/03/06 09:00:36;;;;;;;2.47;1.90;;;7.60;99.90;;;;;;4986727;28;92492;-73
2023/03/06 09:03:04;;;;;;;3.10;1.90;;;7.60;99.90;;;;;;5036985;27;92362;-73
2023/03/06 09:05:31;;;;;;;3.58;2.05;;;7.50;99.90;;;;;;5019148;28;95986;-73
2023/03/06 09:07:58;;;;;;;5.03;1.90;;;7.50;99.90;;;;;;5037387;28;92829;-73
2023/03/06 09:10:26;;;;;;;6.28;1.88;;;7.50;99.90;;;;;;5019490;28;92787;-73
2023/03/06 09:12:53;;;;;;;4.63;1.90;;;7.40;99.90;;;;;;5020026;28;92984;-73
2023/03/06 09:15:22;;;;;;;2.42;1.95;;;7.40;99.90;;;;;;5001313;28;98780;-73
2023/03/06 09:17:49;;;;;;;6.30;1.67;;;7.30;99.90;;;;;;5037297;28;95670;-74
2023/03/06 09:20:17;;;;;;;4.63;2.05;;;7.30;99.90;;;;;;5002920;28;92425;-74
2023/03/06 09:22:45;;;;;;;5.80;2.10;;;7.40;99.90;;;;;;5019351;28;98424;-73
2023/03/06 09:25:13;;;;;;;3.00;1.77;;;7.40;99.90;;;;;;5037433;28;93259;-73
2023/03/06 09:27:40;;;;;;;4.20;2.17;;;7.40;99.90;;;;;;5037128;28;93402;-73
2023/03/06 09:30:08;;;;;;;3.08;1.95;;;7.50;99.90;;;;;;5018713;28;92480;-73
2023/03/06 09:32:35;;;;;;;4.50;4.03;;;7.50;99.90;;;;;;4999245;28;91749;-73
2023/03/06 09:35:02;;;;;;;3.28;1.40;;;7.60;99.90;;;;;;5017067;28;92465;-73
2023/03/06 09:37:29;;;;;;;3.55;1.70;;;7.70;99.90;;;;;;5016878;28;93037;-73
2023/03/06 09:39:56;;;;;;;1.85;1.17;;;7.80;99.90;;;;;;5015859;28;95380;-73
2023/03/06 09:42:24;;;;;;;2.42;1.60;;;7.90;99.90;;;;;;4998740;28;92456;-73
2023/03/06 09:44:58;;;;;;;4.50;1.48;;;8.00;99.90;;;;;;4998899;28;98602;-73
2023/03/06 09:47:45;;;;;;;3.25;1.48;;;8.10;99.90;;;;;;5016700;28;93050;-73
2023/03/06 09:50:36;;;;;;;3.25;1.58;;;8.30;99.90;;;;;;4999248;28;92474;-74
2023/03/06 09:53:36;;;;;;;2.00;1.23;;;8.50;99.90;;;;;;4998785;28;92431;-73
2023/03/06 09:56:15;;;;;;;2.55;1.60;;;8.60;99.90;;;;;;5016769;28;93194;-74
2023/03/06 09:58:48;;;;;;;3.88;1.55;;;8.70;99.90;;;;;;5017291;28;92659;-73
2023/03/06 10:01:20;;;;;;;1.48;1.20;;;8.70;99.90;;;;;;5017030;28;92419;-73
2023/03/06 10:04:09;;;;;;;3.25;1.60;;;8.80;99.90;;;;;;4999185;28;92450;-73
2023/03/06 10:06:49;;;;;;;4.75;1.17;;;9.00;99.90;;;;;;5014506;28;94844;-74
2023/03/06 10:09:36;;;;;;;2.55;0.80;;;9.10;99.90;;;;;;5016412;28;95422;-74
2023/03/06 10:12:09;;;;;;;3.00;1.30;;;9.20;99.90;;;;;;5016952;28;92482;-73
2023/03/06 10:14:38;;;;;;;3.78;2.90;;;9.40;99.90;;;;;;4998941;28;92410;-74
2023/03/06 10:17:30;;;;;;;2.13;0.98;;;9.40;99.90;;;;;;4998176;28;104393;-74
2023/03/06 10:19:58;;;;;;;3.33;1.60;;;9.60;99.90;;;;;;4998104;28;95547;-74
2023/03/06 10:22:52;;;;;;;2.70;0.80;;;9.60;99.90;;;;;;4998727;28;92532;-74
2023/03/06 10:25:54;;;;;;;3.23;0.80;;;9.70;99.90;;;;;;5017021;28;91712;-74
2023/03/06 10:28:34;;;;;;;1.58;0.90;;;9.80;99.90;;;;;;4991202;28;94531;-74
2023/03/06 10:31:10;;;;;;;4.65;4.35;;;10.00;99.90;;;;;;5016389;28;93138;-74
2023/03/06 10:33:46;;;;;;;1.92;0.70;;;10.10;99.90;;;;;;5015223;28;95160;-74
2023/03/06 10:36:19;;;;;;;2.65;0.98;;;10.30;99.90;;;;;;4998076;28;92919;-74
2023/03/06 10:38:47;;;;;;;3.25;1.45;;;10.40;99.90;;;;;;5016006;28;93439;-74
2023/03/06 10:41:23;;;;;;;1.45;0.82;;;10.50;99.90;;;;;;4997990;28;95560;-74
2023/03/06 10:43:59;;;;;;;4.55;1.40;;;10.70;99.90;;;;;;5016283;28;92461;-74
2023/03/06 10:46:38;;;;;;;4.10;1.20;;;10.80;99.90;;;;;;4997658;28;92566;-74
2023/03/06 10:49:39;;;;;;;2.60;0.65;;;10.90;99.40;;;;;;5016113;28;93268;-74
2023/03/06 10:52:12;;;;;;;2.05;0.75;;;11.00;98.60;;;;;;5016432;28;93061;-74
2023/03/06 10:54:41;;;;;;;4.43;0.70;;;11.00;98.60;;;;;;4998313;28;92433;-74
2023/03/06 10:57:27;;;;;;;5.40;1.30;;;10.90;98.10;;;;;;4981791;28;92515;-75
2023/03/06 11:00:22;;;;;;;1.02;0.60;;;10.90;96.80;;;;;;4997065;28;95535;-74
2023/03/06 11:03:23;;;;;;;2.88;0.88;;;10.60;96.50;;;;;;5015460;28;95482;-74
2023/03/06 11:06:06;;;;;;;6.20;1.05;;;10.40;96.80;;;;;;4997599;28;92377;-75
2023/03/06 11:08:34;;;;;;;1.77;0.75;;;10.30;97.20;;;;;;5015740;28;92449;-74
2023/03/06 11:11:05;;;;;;;1.98;0.55;;;10.10;96.90;;;;;;4997893;28;93253;-75
2023/03/06 11:13:38;;;;;;;1.67;0.70;;;10.10;96.60;;;;;;4997663;28;92995;-74
2023/03/06 11:16:12;;;;;;;1.77;0.60;;;9.80;94.50;;;;;;4998243;28;92592;-74
2023/03/06 11:18:41;;;;;;;1.48;0.82;;;9.60;94.80;;;;;;4998104;28;91806;-75
2023/03/06 11:21:30;;;;;;;1.02;0.50;;;9.60;94.50;;;;;;4997071;28;101243;-75
2023/03/06 11:24:06;;;;;;;1.38;0.47;;;9.80;93.80;;;;;;4997420;28;95502;-74
2023/03/06 11:26:43;;;;;;;1.90;0.50;;;9.50;93.00;;;;;;4995908;28;94917;-74
2023/03/06 11:29:26;;;;;;;0.82;0.68;;;9.40;93.20;;;;;;4998036;28;92486;-74
2023/03/06 11:31:56;;;;;;;1.67;0.70;;;9.50;93.40;;;;;;4997652;28;93186;-74
2023/03/06 11:34:39;;;;;;;2.15;0.65;;;9.60;93.40;;;;;;5014492;28;104468;-74
2023/03/06 11:37:07;;;;;;;1.38;0.70;;;9.90;93.60;;;;;;4997322;28;92549;-74
2023/03/06 11:39:48;;;;;;;3.92;0.60;;;10.10;94.30;;;;;;4997132;28;92423;-74
2023/03/06 11:42:25;;;;;;;1.48;0.82;;;10.30;94.80;;;;;;4997102;28;95923;-74
2023/03/06 11:45:20;;;;;;;2.47;1.13;;;10.40;95.20;;;;;;4997390;28;92997;-74
2023/03/06 11:48:02;;;;;;;1.52;0.45;;;10.60;95.50;;;;;;5015325;28;92551;-75
2023/03/06 11:50:39;;;;;;;2.70;0.90;;;10.70;95.20;;;;;;5015565;28;92479;-74
2023/03/06 11:53:14;;;;;;;1.67;1.00;;;11.00;94.70;;;;;;4996020;28;95669;-75
2023/03/06 11:55:49;;;;;;;1.73;0.50;;;11.20;94.20;;;;;;5013943;28;95430;-74
2023/03/06 11:58:37;;;;;;;2.17;1.00;;;11.40;93.90;;;;;;5015439;28;92492;-75
2023/03/06 12:01:15;;;;;;;1.55;0.80;;;11.60;93.20;;;;;;4984144;28;92458;-74
2023/03/06 12:04:13;;;;;;;1.33;0.70;;;11.80;92.70;;;;;;4996889;28;92494;-75
2023/03/06 12:06:58;;;;;;;3.03;0.98;;;12.10;92.10;;;;;;5014277;28;92923;-75
2023/03/06 12:09:37;;;;;;;1.27;0.70;;;12.30;92.10;;;;;;4996903;28;92482;-72
2023/03/06 12:12:08;;;;;;;3.85;0.70;;;12.50;92.30;;;;;;4997654;28;91700;-72
2023/03/06 12:15:00;;;;;;;3.05;0.60;;;12.70;90.70;;;;;;5014907;28;93271;-72
2023/03/06 12:17:50;;;;;;;2.85;0.80;;;12.80;90.10;;;;;;5014671;28;93111;-72
2023/03/06 12:20:39;;;;;;;1.13;0.45;;;12.80;90.50;;;;;;5013570;28;94868;-74
2023/03/06 12:23:26;;;;;;;1.00;0.55;;;12.70;90.30;;;;;;5015067;28;92953;-72
2023/03/06 12:25:58;;;;;;;2.50;1.13;;;12.70;90.60;;;;;;5014803;28;93172;-72
2023/03/06 12:28:25;;;;;;;1.02;0.50;;;12.70;90.90;;;;;;5014526;28;92706;-72
2023/03/06 12:31:24;;;;;;;2.28;1.30;;;12.60;90.60;;;;;;4996738;28;92405;-72
2023/03/06 12:34:17;;;;;;;4.13;3.15;;;12.60;90.30;;;;;;5014331;28;92397;-72
2023/03/06 12:37:08;;;;;;;2.30;2.10;;;12.50;90.40;;;;;;5014504;28;93406;-74
2023/03/06 12:39:59;;;;;;;9.73;9.02;;;12.40;89.60;;;;;;5017536;28;92962;-72
2023/03/06 12:42:52;;;;;;;6.43;5.88;;;12.30;88.00;;;;;;5000140;28;92485;-72
2023/03/06 12:45:33;;;;;;;5.53;2.20;;;12.20;89.10;;;;;;4999868;28;92491;-72
2023/03/06 12:48:00;;;;;;;1.85;0.73;;;12.20;90.00;;;;;;5015330;28;95744;-72
2023/03/06 12:50:35;;;;;;;1.95;1.15;;;12.30;90.30;;;;;;4999666;28;95363;-72
2023/03/06 12:53:12;;;;;;;2.53;0.57;;;12.40;89.00;;;;;;5000052;28;92393;-72
2023/03/06 12:55:43;;;;;;;0.73;0.70;;;12.40;89.60;;;;;;5017765;28;92468;-72
2023/03/06 12:58:29;;;;;;;0.73;0.73;;;12.50;88.50;;;;;;4999473;28;94235;-72
2023/03/06 13:01:03;;;;;;;4.68;1.10;;;12.60;88.80;;;;;;5017379;28;92993;-72
2023/03/06 13:04:09;;;;;;;1.00;0.73;;;12.50;90.20;;;;;;4999530;28;92409;-72
2023/03/06 13:07:12;;;;;;;2.97;0.93;;;12.50;88.70;;;;;;4999096;28;91725;-74
2023/03/06 13:09:51;;;;;;;1.40;0.77;;;12.40;88.80;;;;;;4999833;28;92467;-72
2023/03/06 13:12:48;;;;;;;3.05;1.75;;;12.20;89.50;;;;;;5017348;28;92675;-72
2023/03/06 13:15:39;;;;;;;3.58;0.77;;;12.10;89.10;;;;;;4981798;28;94862;-72
2023/03/06 13:18:21;;;;;;;2.75;1.60;;;12.00;89.20;;;;;;5017336;28;92377;-72
2023/03/06 13:20:55;;;;;;;3.78;1.08;;;12.00;90.10;;;;;;4982142;28;94929;-72